createdAt,value
2023-03-13T00:02:15.310Z,79.18
2023-03-13T00:05:04.125Z,82.35
2023-03-13T00:10:36.940Z,80.72
2023-03-13T00:13:08.136Z,81.89
2023-03-13T00:18:40.170Z,83.61
2023-03-13T00:21:11.271Z,78.95
2023-03-13T00:26:35.858Z,79.66
2023-03-13T00:29:06.653Z,83.42
2023-03-13T00:31:39.802Z,81.08
2023-03-13T00:34:13.892Z,80.71
2023-03-13T00:36:49.695Z,81.46
2023-03-13T00:39:20.638Z,83.43
2023-03-13T00:41:49.786Z,81.99
2023-03-13T00:44:19.761Z,83.78
2023-03-13T00:46:52.225Z,83.92
2023-03-13T00:49:21.248Z,83.04
2023-03-13T00:52:03.295Z,80.96
2023-03-13T00:54:45.988Z,81.66
2023-03-13T00:57:30.673Z,83.09
2023-03-13T01:06:53.417Z,83.25
2023-03-13T01:09:26.552Z,83.83
2023-03-13T01:25:41.399Z,89.11
2023-03-13T01:34:41.360Z,87.83
2023-03-13T01:43:57.340Z,87.14
2023-03-13T01:49:51.490Z,87.26
2023-03-13T01:52:12.971Z,90.36
2023-03-13T01:54:52.551Z,93.01
2023-03-13T01:57:24.649Z,91.89
2023-03-13T02:00:01.348Z,92.62
2023-03-13T02:06:09.506Z,91.74
2023-03-13T02:08:43.475Z,92.87
2023-03-13T02:11:28.334Z,94.17
2023-03-13T02:17:48.136Z,99.03
2023-03-13T02:20:24.833Z,100.00
2023-03-13T02:23:16.392Z,100.00
2023-03-13T02:25:53.869Z,100.00
2023-03-13T02:28:27.188Z,100.00
2023-03-13T02:31:01.269Z,100.00
2023-03-13T02:33:36.165Z,100.00
2023-03-13T02:36:09.116Z,100.00
2023-03-13T02:38:49.047Z,100.00
2023-03-13T02:41:20.901Z,100.00
2023-03-13T02:43:51.472Z,100.00
2023-03-13T02:46:21.977Z,100.00
2023-03-13T02:48:54.158Z,100.00
2023-03-13T02:51:34.996Z,100.00
2023-03-13T02:54:11.074Z,100.00
2023-03-13T02:56:43.468Z,100.00
2023-03-13T02:59:12.505Z,100.00
2023-03-13T03:01:41.466Z,100.00
2023-03-13T03:04:12.142Z,100.00
2023-03-13T03:06:41.010Z,100.00
2023-03-13T03:09:19.621Z,100.00
2023-03-13T03:11:48.646Z,100.00
2023-03-13T03:14:21.720Z,100.00
2023-03-13T03:17:04.195Z,100.00
2023-03-13T03:23:17.137Z,100.00
2023-03-13T03:26:08.157Z,100.00
2023-03-13T03:28:41.196Z,100.00
2023-03-13T03:31:21.384Z,100.00
2023-03-13T03:33:52.803Z,100.00
2023-03-13T03:36:29.632Z,100.00
2023-03-13T03:39:04.036Z,100.00
2023-03-13T03:41:39.397Z,100.00
2023-03-13T03:44:22.485Z,100.00
2023-03-13T03:46:59.848Z,100.00
2023-03-13T03:49:28.991Z,100.00
2023-03-13T03:52:03.742Z,100.00
2023-03-13T03:54:32.722Z,100.00
2023-03-13T03:57:03.082Z,100.00
2023-03-13T03:59:47.407Z,100.00
2023-03-13T04:02:17.801Z,100.00
2023-03-13T04:04:54.361Z,100.00
2023-03-13T04:07:28.396Z,100.00
2023-03-13T04:10:04.206Z,100.00
2023-03-13T04:12:37.587Z,100.00
2023-03-13T04:18:25.643Z,100.00
2023-03-13T04:21:09.785Z,100.00
2023-03-13T04:23:49.629Z,100.00
2023-03-13T04:30:45.892Z,100.00
2023-03-13T04:33:28.888Z,100.00
2023-03-13T04:36:26.243Z,100.00
2023-03-13T04:38:36.974Z,100.00
2023-03-13T04:41:10.972Z,100.00
2023-03-13T04:43:40.045Z,100.00
2023-03-13T04:49:47.279Z,100.00
2023-03-13T04:52:19.042Z,100.00
2023-03-13T04:54:48.136Z,100.00
2023-03-13T04:57:19.064Z,100.00
2023-03-13T04:59:51.821Z,100.00
2023-03-13T05:02:23.947Z,100.00
2023-03-13T05:05:02.753Z,100.00
2023-03-13T05:07:34.497Z,100.00
2023-03-13T05:10:03.513Z,100.00
2023-03-13T05:12:32.596Z,100.00
2023-03-13T05:15:03.464Z,100.00
2023-03-13T05:17:44.789Z,100.00
2023-03-13T05:20:21.344Z,100.00
2023-03-13T05:22:53.321Z,100.00
2023-03-13T05:25:23.628Z,100.00
2023-03-13T05:28:00.497Z,100.00
2023-03-13T05:30:29.396Z,100.00
2023-03-13T05:32:59.772Z,100.00
2023-03-13T05:35:36.007Z,100.00
2023-03-13T05:38:08.426Z,100.00
2023-03-13T05:40:48.515Z,100.00
2023-03-13T05:43:19.208Z,100.00
2023-03-13T05:52:28.634Z,100.00
2023-03-13T05:54:57.888Z,100.00
2023-03-13T05:57:29.774Z,100.00
2023-03-13T06:00:01.942Z,100.00
2023-03-13T06:02:30.756Z,100.00
2023-03-13T06:05:01.361Z,100.00
2023-03-13T06:07:30.399Z,100.00
2023-03-13T06:10:05.171Z,100.00
2023-03-13T06:12:33.163Z,100.00
2023-03-13T06:15:02.006Z,100.00
2023-03-13T06:17:32.457Z,100.00
2023-03-13T06:20:01.305Z,100.00
2023-03-13T06:22:31.131Z,100.00
2023-03-13T06:25:02.398Z,100.00
2023-03-13T06:27:31.297Z,100.00
2023-03-13T06:30:00.128Z,100.00
2023-03-13T06:32:29.931Z,100.00
2023-03-13T06:34:59.165Z,100.00
2023-03-13T06:37:27.787Z,100.00
2023-03-13T06:39:56.608Z,100.00
2023-03-13T06:42:28.367Z,100.00
2023-03-13T06:44:57.202Z,100.00
2023-03-13T06:47:25.812Z,100.00
2023-03-13T06:49:54.363Z,100.00
2023-03-13T06:52:31.433Z,100.00
2023-03-13T06:54:53.592Z,97.45
2023-03-13T06:57:22.386Z,100.00
2023-03-13T06:59:51.181Z,99.02
2023-03-13T07:02:19.764Z,96.00
2023-03-13T07:04:48.446Z,92.10
2023-03-13T07:07:31.001Z,87.80
2023-03-13T07:09:47.436Z,83.90
2023-03-13T07:12:17.765Z,81.74
2023-03-13T07:14:46.432Z,80.18
2023-03-13T07:17:15.196Z,80.75
2023-03-13T07:19:43.985Z,83.92
2023-03-13T07:22:12.713Z,86.22
2023-03-13T07:24:44.433Z,81.70
2023-03-13T07:27:17.922Z,80.32
2023-03-13T07:29:52.961Z,80.85
2023-03-13T07:32:32.718Z,92.62
2023-03-13T07:35:04.917Z,80.06
2023-03-13T07:37:39.194Z,79.43
2023-03-13T07:40:16.028Z,75.33
2023-03-13T07:46:50.466Z,72.30
2023-03-13T07:49:20.461Z,72.60
2023-03-13T07:51:52.660Z,68.63
2023-03-13T07:54:21.352Z,68.26
2023-03-13T07:56:51.303Z,66.12
2023-03-13T07:59:20.041Z,64.96
2023-03-13T08:01:48.713Z,65.15
2023-03-13T08:04:17.711Z,63.59
2023-03-13T08:06:46.419Z,61.50
2023-03-13T08:09:16.508Z,60.82
2023-03-13T08:15:28.882Z,60.67
2023-03-13T08:18:01.460Z,60.73
2023-03-13T08:20:30.435Z,61.55
2023-03-13T08:22:59.191Z,61.96
2023-03-13T08:25:27.914Z,61.60
2023-03-13T08:27:56.738Z,59.04
2023-03-13T08:30:25.479Z,57.85
2023-03-13T08:32:54.398Z,57.17
2023-03-13T08:35:23.246Z,57.84
2023-03-13T08:37:53.019Z,57.64
2023-03-13T08:40:21.649Z,56.53
2023-03-13T08:42:53.643Z,56.53
2023-03-13T08:48:31.975Z,55.00
2023-03-13T08:51:06.344Z,52.93
2023-03-13T08:53:36.417Z,52.85
2023-03-13T08:56:05.623Z,52.39
2023-03-13T08:58:36.211Z,51.94
2023-03-13T09:01:07.793Z,52.63
2023-03-13T09:07:53.968Z,51.80
2023-03-13T09:10:25.224Z,51.66
2023-03-13T09:12:53.709Z,52.49
2023-03-13T09:15:22.394Z,51.02
2023-03-13T09:17:51.062Z,50.73
2023-03-13T09:20:19.932Z,49.88
2023-03-13T09:22:48.681Z,50.29
2023-03-13T09:25:19.179Z,49.48
2023-03-13T09:27:47.721Z,49.41
2023-03-13T09:30:16.496Z,49.00
2023-03-13T09:32:45.417Z,48.83
2023-03-13T09:35:22.134Z,48.53
2023-03-13T09:37:50.807Z,47.83
2023-03-13T09:40:22.154Z,48.67
2023-03-13T09:42:55.550Z,48.65
2023-03-13T09:45:40.721Z,48.35
2023-03-13T09:48:35.118Z,47.71
2023-03-13T09:51:06.746Z,46.58
2023-03-13T09:54:05.037Z,47.08
2023-03-13T09:56:49.092Z,46.83
2023-03-13T09:59:35.885Z,45.79
2023-03-13T10:02:07.540Z,45.76
2023-03-13T10:04:41.640Z,45.35
2023-03-13T10:07:12.598Z,45.76
2023-03-13T10:09:41.389Z,45.70
2023-03-13T10:12:27.778Z,45.23
2023-03-13T10:15:14.548Z,45.11
2023-03-13T10:17:45.291Z,45.20
2023-03-13T10:20:25.508Z,44.81
2023-03-13T10:23:06.040Z,45.08
2023-03-13T10:25:40.021Z,44.32
2023-03-13T10:34:57.269Z,42.88
2023-03-13T10:37:28.986Z,42.76
2023-03-13T10:40:17.054Z,42.92
2023-03-13T10:46:49.446Z,41.09
2023-03-13T10:49:23.595Z,41.79
2023-03-13T10:51:57.693Z,41.49
2023-03-13T10:54:38.160Z,40.40
2023-03-13T10:57:32.730Z,41.38
2023-03-13T11:00:04.971Z,40.57
2023-03-13T11:02:40.951Z,41.07
2023-03-13T11:05:36.751Z,41.19
2023-03-13T11:08:24.007Z,41.76
2023-03-13T11:10:55.809Z,41.49
2023-03-13T11:13:39.382Z,40.71
2023-03-13T11:16:11.188Z,40.25
2023-03-13T11:18:48.635Z,40.30
2023-03-13T11:21:28.478Z,39.74
2023-03-13T11:24:01.812Z,39.72
2023-03-13T11:26:44.681Z,39.25
2023-03-13T11:29:15.840Z,39.73
2023-03-13T11:31:47.663Z,40.46
2023-03-13T11:34:27.569Z,40.60
2023-03-13T11:37:16.384Z,40.34
2023-03-13T11:40:23.313Z,40.14
2023-03-13T11:43:21.798Z,39.94
2023-03-13T11:45:51.274Z,39.86
2023-03-13T11:48:37.490Z,39.43
2023-03-13T11:51:17.627Z,39.56
2023-03-13T11:54:22.024Z,39.54
2023-03-13T11:56:53.679Z,40.37
2023-03-13T11:59:46.400Z,40.53
2023-03-13T12:02:20.154Z,40.86
2023-03-13T12:04:52.140Z,41.45
2023-03-13T12:07:29.955Z,41.34
2023-03-13T12:10:20.116Z,40.40
2023-03-13T12:13:10.105Z,40.85
2023-03-13T12:15:41.776Z,41.45
2023-03-13T12:18:21.703Z,41.32
2023-03-13T12:21:09.705Z,41.39
2023-03-13T12:23:44.364Z,41.14
2023-03-13T12:26:19.201Z,41.30
2023-03-13T12:29:02.940Z,40.76
2023-03-13T12:31:43.584Z,40.72
2023-03-13T12:51:01.160Z,40.33
2023-03-13T13:07:20.413Z,39.43
2023-03-13T14:36:26.758Z,38.24
2023-03-13T14:46:20.403Z,38.29
2023-03-13T14:53:13.296Z,38.45
2023-03-13T15:05:08.003Z,38.63
2023-03-13T15:07:44.618Z,38.40
2023-03-13T15:10:37.015Z,38.53
2023-03-13T15:13:32.857Z,38.88
2023-03-13T15:16:04.273Z,38.31
2023-03-13T15:18:35.258Z,38.07
2023-03-13T15:21:17.124Z,38.28
2023-03-13T15:23:57.769Z,37.95
2023-03-13T15:26:32.296Z,38.50
2023-03-13T15:29:00.870Z,38.35
2023-03-13T15:34:10.736Z,37.14
2023-03-13T15:36:40.837Z,37.28
2023-03-13T15:39:27.080Z,37.09
2023-03-13T15:41:56.193Z,36.63
2023-03-13T15:44:24.703Z,36.38
2023-03-13T15:50:40.394Z,35.79
2023-03-13T15:53:06.477Z,35.64
2023-03-13T15:55:44.033Z,35.64
2023-03-13T15:58:14.508Z,35.86
2023-03-13T16:00:44.574Z,36.57
2023-03-13T16:03:24.986Z,37.30
2023-03-13T16:05:56.583Z,37.79
2023-03-13T16:11:46.393Z,38.71
2023-03-13T16:14:15.147Z,39.38
2023-03-13T16:16:43.919Z,39.86
2023-03-13T16:19:13.966Z,40.48
2023-03-13T16:21:44.277Z,40.61
2023-03-13T16:24:12.931Z,41.33
2023-03-13T16:26:41.521Z,41.79
2023-03-13T16:29:12.880Z,42.55
2023-03-13T16:31:44.933Z,42.68
2023-03-13T16:34:13.502Z,43.01
2023-03-13T16:36:42.200Z,43.46
2023-03-13T16:39:18.014Z,43.84
2023-03-13T16:41:49.757Z,44.19
2023-03-13T16:44:28.402Z,44.87
2023-03-13T16:47:05.576Z,45.84
2023-03-13T16:49:50.252Z,46.51
2023-03-13T16:52:19.532Z,48.63
2023-03-13T16:58:16.067Z,49.25
2023-03-13T17:01:02.696Z,50.24
2023-03-13T17:03:18.719Z,51.49
2023-03-13T17:05:47.700Z,52.94
2023-03-13T17:08:16.574Z,52.31
2023-03-13T17:10:45.306Z,53.13
2023-03-13T17:13:14.145Z,54.26
2023-03-13T17:15:43.014Z,54.38
2023-03-13T17:18:11.908Z,54.77
2023-03-13T17:20:42.449Z,55.12
2023-03-13T17:23:11.707Z,55.63
2023-03-13T17:25:43.597Z,56.35
2023-03-13T17:28:16.289Z,56.67
2023-03-13T17:30:45.032Z,56.32
2023-03-13T17:33:15.318Z,57.08
2023-03-13T17:36:11.834Z,58.11
2023-03-13T17:38:37.797Z,60.84
2023-03-13T17:41:06.643Z,61.69
2023-03-13T17:43:40.053Z,62.16
2023-03-13T17:46:23.437Z,64.01
2023-03-13T17:48:54.498Z,63.89
2023-03-13T17:51:32.121Z,64.50
2023-03-13T17:54:01.210Z,64.55
2023-03-13T17:56:34.501Z,65.63
2023-03-13T17:59:04.430Z,65.94
2023-03-13T18:01:35.509Z,67.23
2023-03-13T18:04:04.638Z,69.00
2023-03-13T18:06:48.934Z,69.76
2023-03-13T18:09:20.906Z,70.17
2023-03-13T18:11:50.483Z,70.21
2023-03-13T18:14:21.679Z,70.81
2023-03-13T18:16:51.042Z,72.13
2023-03-13T18:19:27.140Z,72.14
2023-03-13T18:21:56.959Z,73.33
2023-03-13T18:24:27.095Z,77.76
2023-03-13T18:27:07.446Z,87.70
2023-03-13T18:29:55.652Z,88.61
2023-03-13T18:32:24.494Z,93.57
2023-03-13T18:34:53.575Z,90.42
2023-03-13T18:37:33.996Z,90.65
2023-03-13T18:40:04.749Z,94.92
2023-03-13T18:42:40.290Z,91.92
2023-03-13T18:45:09.955Z,92.08
2023-03-13T18:47:38.543Z,93.49
2023-03-13T18:50:13.110Z,95.47
2023-03-13T18:52:46.202Z,100.00
2023-03-13T18:55:51.153Z,95.46
2023-03-13T18:59:09.121Z,94.50
2023-03-13T19:01:24.388Z,88.68
2023-03-13T19:03:53.714Z,91.38
2023-03-13T19:06:34.912Z,92.59
2023-03-13T19:09:03.741Z,94.28
2023-03-13T19:11:33.529Z,82.21
2023-03-13T19:14:02.227Z,80.43
2023-03-13T19:16:35.200Z,75.39
2023-03-13T19:19:05.776Z,75.58
2023-03-13T19:21:34.722Z,74.01
2023-03-13T19:24:03.514Z,77.00
2023-03-13T19:26:35.196Z,77.47
2023-03-13T19:29:05.111Z,74.99
2023-03-13T19:34:24.448Z,72.89
2023-03-13T19:36:53.572Z,72.78
2023-03-13T19:39:25.176Z,73.65
2023-03-13T19:41:54.550Z,74.05
2023-03-13T19:44:24.207Z,70.45
2023-03-13T19:46:55.932Z,68.23
2023-03-13T19:49:24.773Z,65.83
2023-03-13T19:51:53.407Z,64.36
2023-03-13T19:54:25.258Z,63.31
2023-03-13T19:56:53.917Z,63.13
2023-03-13T19:59:26.472Z,60.71
2023-03-13T20:02:00.089Z,60.84
2023-03-13T20:04:28.800Z,61.93
2023-03-13T20:06:57.433Z,62.34
2023-03-13T20:09:26.152Z,63.49
2023-03-13T20:11:54.704Z,65.27
2023-03-13T20:14:23.327Z,65.26
2023-03-13T20:16:51.881Z,60.58
2023-03-13T20:19:22.316Z,60.58
2023-03-13T20:21:52.634Z,60.30
2023-03-13T20:24:22.892Z,58.19
2023-03-13T20:26:55.070Z,56.54
2023-03-13T20:29:34.726Z,56.49
2023-03-13T20:32:04.971Z,56.73
2023-03-13T20:34:33.701Z,56.36
2023-03-13T20:37:04.074Z,56.93
2023-03-13T20:39:33.052Z,57.30
2023-03-13T20:42:03.205Z,57.00
2023-03-13T20:44:32.038Z,56.95
2023-03-13T20:47:00.890Z,58.49
2023-03-13T20:49:29.776Z,57.17
2023-03-13T20:51:58.489Z,55.68
2023-03-13T20:54:27.144Z,55.76
2023-03-13T20:56:55.809Z,56.06
2023-03-13T20:59:24.478Z,55.81
2023-03-13T21:02:26.363Z,56.71
2023-03-13T21:04:55.178Z,55.41
2023-03-13T21:07:23.861Z,55.78
2023-03-13T21:09:54.001Z,56.33
2023-03-13T21:12:22.509Z,56.03
2023-03-13T21:14:52.691Z,55.85
2023-03-13T21:17:21.452Z,56.91
2023-03-13T21:19:50.279Z,56.80
2023-03-13T21:22:19.375Z,57.07
2023-03-13T21:24:48.922Z,57.88
2023-03-13T21:27:19.668Z,58.69
2023-03-13T21:29:50.250Z,59.15
2023-03-13T21:32:19.828Z,59.80
2023-03-13T21:34:51.676Z,59.37
2023-03-13T21:37:20.447Z,59.86
2023-03-13T21:39:54.136Z,60.52
2023-03-13T21:42:23.246Z,60.04
2023-03-13T21:44:53.515Z,60.68
2023-03-13T21:47:25.314Z,60.68
2023-03-13T21:50:04.527Z,61.27
2023-03-13T21:52:38.045Z,61.65
2023-03-13T21:55:08.088Z,63.00
2023-03-13T22:01:04.314Z,63.55
2023-03-13T22:03:49.973Z,63.29
2023-03-13T22:06:25.339Z,62.87
2023-03-13T22:08:54.023Z,63.52
2023-03-13T22:11:26.102Z,63.53
2023-03-13T22:13:58.246Z,63.53
2023-03-13T22:16:30.439Z,61.93
2023-03-13T22:22:41.110Z,61.80
2023-03-13T22:25:10.394Z,61.15
2023-03-13T22:27:39.274Z,61.24
2023-03-13T22:30:08.927Z,60.29
2023-03-13T22:32:38.043Z,57.84
2023-03-13T22:35:10.263Z,59.71
2023-03-13T22:37:39.167Z,59.71
2023-03-13T22:40:09.729Z,58.58
2023-03-13T22:42:38.429Z,58.57
2023-03-13T22:45:08.057Z,57.86
2023-03-13T22:47:39.768Z,57.75
2023-03-13T22:50:11.200Z,57.17
2023-03-13T22:52:44.506Z,57.14
2023-03-13T22:55:13.677Z,57.21
2023-03-13T22:57:47.848Z,57.07
2023-03-13T23:00:18.509Z,57.86
2023-03-13T23:02:47.588Z,59.19
2023-03-13T23:05:20.568Z,59.19
2023-03-13T23:07:53.232Z,59.48
2023-03-13T23:10:23.635Z,59.58
2023-03-13T23:12:52.502Z,59.39
2023-03-13T23:15:24.590Z,58.42
2023-03-13T23:17:53.593Z,58.42
2023-03-13T23:20:26.296Z,58.36
2023-03-13T23:22:55.298Z,56.92
2023-03-13T23:25:23.997Z,56.41
2023-03-13T23:27:53.041Z,56.12
2023-03-13T23:30:21.781Z,56.12
2023-03-13T23:32:50.527Z,56.04
2023-03-13T23:35:19.248Z,56.04
2023-03-13T23:37:55.790Z,56.65
2023-03-13T23:40:28.386Z,56.46
2023-03-13T23:42:57.019Z,56.23
2023-03-13T23:45:27.420Z,56.44
2023-03-13T23:47:56.513Z,56.27
2023-03-13T23:50:25.413Z,56.79
2023-03-13T23:52:55.770Z,56.27
2023-03-13T23:55:25.786Z,56.68
2023-03-13T23:57:54.428Z,56.71
